createdAt,value
2024-02-08T00:00:51.195Z,28.13
2024-02-08T00:02:54.549Z,29.45
2024-02-08T00:04:56.800Z,29.35
2024-02-08T00:07:02.263Z,30.63
2024-02-08T00:09:07.476Z,31.20
2024-02-08T00:11:09.830Z,31.27
2024-02-08T00:13:14.478Z,34.40
2024-02-08T00:15:19.330Z,34.47
2024-02-08T00:17:24.678Z,33.28
2024-02-08T00:19:26.966Z,33.88
2024-02-08T00:21:33.044Z,30.60
2024-02-08T00:23:38.278Z,30.52
2024-02-08T00:25:41.478Z,31.35
2024-02-08T00:27:44.802Z,33.38
2024-02-08T00:29:48.082Z,30.58
2024-02-08T00:31:53.635Z,29.50
2024-02-08T00:33:56.901Z,35.13
2024-02-08T00:36:00.049Z,29.77
2024-02-08T00:38:05.357Z,36.80
2024-02-08T00:40:11.366Z,36.70
2024-02-08T00:42:15.128Z,37.97
2024-02-08T00:44:17.822Z,39.13
2024-02-08T00:46:22.103Z,37.40
2024-02-08T00:48:26.853Z,37.60
2024-02-08T00:50:29.995Z,34.95
2024-02-08T00:52:34.591Z,33.83
2024-02-08T00:54:38.441Z,34.95
2024-02-08T00:56:43.136Z,29.38
2024-02-08T00:58:48.463Z,32.53
2024-02-08T01:02:59.353Z,29.27
2024-02-08T01:05:08.918Z,34.50
2024-02-08T01:07:12.326Z,34.85
2024-02-08T01:09:21.644Z,37.25
2024-02-08T01:11:25.829Z,32.88
2024-02-08T01:13:30.657Z,39.95
2024-02-08T01:15:33.853Z,34.33
2024-02-08T01:17:37.071Z,30.50
2024-02-08T01:19:40.370Z,33.40
2024-02-08T01:21:45.961Z,29.73
2024-02-08T01:23:49.242Z,29.05
2024-02-08T01:25:51.520Z,34.45
2024-02-08T01:27:56.615Z,34.22
2024-02-08T01:30:01.435Z,28.65
2024-02-08T01:32:05.124Z,37.17
2024-02-08T01:34:10.860Z,32.80
2024-02-08T01:36:14.780Z,32.78
2024-02-08T01:38:19.894Z,34.75
2024-02-08T01:40:23.192Z,31.08
2024-02-08T01:42:26.436Z,26.52
2024-02-08T01:44:33.658Z,32.58
2024-02-08T01:46:39.734Z,32.70
2024-02-08T01:48:46.607Z,33.75
2024-02-08T01:50:53.625Z,30.95
2024-02-08T01:53:00.553Z,27.83
2024-02-08T01:55:07.120Z,26.77
2024-02-08T01:57:10.730Z,25.02
2024-02-08T01:59:15.104Z,24.67
2024-02-08T02:01:18.910Z,28.48
2024-02-08T02:03:24.728Z,25.83
2024-02-08T02:05:27.179Z,28.92
2024-02-08T02:07:31.322Z,30.02
2024-02-08T02:09:36.430Z,31.15
2024-02-08T02:11:45.431Z,34.03
2024-02-08T02:13:50.299Z,33.55
2024-02-08T02:15:54.095Z,31.75
2024-02-08T02:17:56.474Z,39.78
2024-02-08T02:20:07.787Z,35.30
2024-02-08T02:22:15.035Z,31.17
2024-02-08T02:24:26.042Z,32.33
2024-02-08T02:26:31.152Z,36.38
2024-02-08T02:28:34.676Z,31.48
2024-02-08T02:30:38.110Z,28.25
2024-02-08T02:32:42.621Z,27.33
2024-02-08T02:34:48.043Z,33.20
2024-02-08T02:36:54.767Z,31.48
2024-02-08T02:39:00.058Z,30.30
2024-02-08T02:41:08.219Z,31.00
2024-02-08T02:43:15.016Z,32.92
2024-02-08T02:45:27.195Z,29.08
2024-02-08T02:47:30.525Z,28.83
2024-02-08T02:49:38.799Z,30.30
2024-02-08T02:51:43.086Z,30.98
2024-02-08T02:53:46.571Z,33.90
2024-02-08T02:55:57.217Z,35.78
2024-02-08T02:58:00.531Z,38.08
2024-02-08T03:00:04.329Z,28.55
2024-02-08T03:02:09.992Z,27.40
2024-02-08T03:04:13.374Z,27.08
2024-02-08T03:06:17.489Z,27.75
2024-02-08T03:08:22.022Z,25.58
2024-02-08T03:10:25.332Z,24.77
2024-02-08T03:12:31.550Z,27.23
2024-02-08T03:14:35.302Z,25.98
2024-02-08T03:16:38.809Z,27.30
2024-02-08T03:18:44.927Z,26.13
2024-02-08T03:20:48.447Z,26.45
2024-02-08T03:22:50.903Z,26.75
2024-02-08T03:24:54.840Z,22.30
2024-02-08T03:26:58.142Z,19.73
2024-02-08T03:29:02.793Z,22.23
2024-02-08T03:31:10.405Z,24.67
2024-02-08T03:33:17.692Z,23.88
2024-02-08T03:35:26.972Z,24.50
2024-02-08T03:37:30.405Z,33.28
2024-02-08T03:39:33.640Z,24.13
2024-02-08T03:41:38.251Z,27.10
2024-02-08T03:43:41.632Z,26.15
2024-02-08T03:45:48.588Z,22.88
2024-02-08T03:47:52.650Z,25.90
2024-02-08T03:49:55.032Z,25.85
2024-02-08T03:51:58.287Z,23.98
2024-02-08T03:54:05.070Z,23.23
2024-02-08T03:56:08.983Z,22.67
2024-02-08T03:58:15.907Z,21.45
2024-02-08T04:00:29.731Z,23.17
2024-02-08T04:02:36.355Z,28.92
2024-02-08T04:04:54.863Z,24.35
2024-02-08T04:07:16.163Z,28.73
2024-02-08T04:09:35.235Z,32.63
2024-02-08T04:11:56.274Z,32.53
2024-02-08T04:14:17.003Z,29.80
2024-02-08T04:19:00.742Z,31.67
2024-02-08T04:21:21.488Z,30.00
2024-02-08T04:26:02.759Z,24.67
2024-02-08T04:28:23.634Z,27.88
2024-02-08T04:33:06.702Z,27.75
2024-02-08T04:35:30.680Z,27.40
2024-02-08T04:37:51.215Z,27.08
2024-02-08T04:40:13.512Z,27.05
2024-02-08T04:42:35.073Z,23.27
2024-02-08T04:44:56.038Z,26.33
2024-02-08T04:47:16.641Z,22.20
2024-02-08T04:49:39.635Z,26.35
2024-02-08T04:52:05.112Z,22.55
2024-02-08T04:54:11.231Z,28.08
2024-02-08T04:56:13.849Z,31.55
2024-02-08T04:58:37.086Z,31.17
2024-02-08T05:00:46.848Z,24.92
2024-02-08T05:02:50.845Z,27.85
2024-02-08T05:04:57.213Z,28.88
2024-02-08T05:07:08.701Z,35.97
2024-02-08T05:09:17.384Z,35.22
2024-02-08T05:11:21.729Z,36.40
2024-02-08T05:13:25.914Z,36.63
2024-02-08T05:15:29.279Z,32.90
2024-02-08T05:17:32.536Z,28.63
2024-02-08T05:19:37.183Z,28.88
2024-02-08T05:21:43.161Z,31.50
2024-02-08T05:23:52.662Z,31.42
2024-02-08T05:25:56.011Z,33.00
2024-02-08T05:27:59.250Z,36.17
2024-02-08T05:30:03.464Z,36.22
2024-02-08T05:32:05.899Z,26.92
2024-02-08T05:34:16.550Z,29.17
2024-02-08T05:36:21.245Z,29.67
2024-02-08T05:38:26.286Z,30.08
2024-02-08T05:40:32.739Z,27.48
2024-02-08T05:42:37.813Z,24.50
2024-02-08T05:44:43.428Z,27.35
2024-02-08T05:46:47.343Z,27.00
2024-02-08T05:48:53.340Z,28.92
2024-02-08T05:50:58.435Z,28.33
2024-02-08T05:53:08.279Z,24.65
2024-02-08T05:55:14.428Z,25.70
2024-02-08T05:57:23.080Z,23.77
2024-02-08T05:59:30.632Z,23.92
2024-02-08T06:01:45.691Z,24.00
2024-02-08T06:03:49.682Z,29.95
2024-02-08T06:06:08.001Z,22.20
2024-02-08T06:08:26.803Z,23.38
2024-02-08T06:10:46.862Z,27.48
2024-02-08T06:13:00.976Z,27.85
2024-02-08T06:15:16.247Z,28.42
2024-02-08T06:17:25.622Z,28.50
2024-02-08T06:19:35.660Z,29.25
2024-02-08T06:21:41.849Z,25.23
2024-02-08T06:23:46.670Z,26.58
2024-02-08T06:26:22.769Z,20.67
2024-02-08T06:28:30.576Z,28.80
2024-02-08T06:30:33.829Z,24.15
2024-02-08T06:32:45.165Z,21.92
2024-02-08T06:34:57.223Z,28.98
2024-02-08T06:37:00.594Z,32.88
2024-02-08T06:41:52.708Z,26.27
2024-02-08T06:44:21.243Z,30.63
2024-02-08T06:46:40.761Z,34.65
2024-02-08T06:49:00.790Z,50.13
2024-02-08T06:51:23.226Z,43.10
2024-02-08T06:53:44.027Z,35.42
2024-02-08T06:58:41.178Z,34.65
2024-02-08T07:01:02.036Z,28.33
2024-02-08T07:03:23.459Z,31.13
2024-02-08T07:05:44.292Z,31.73
2024-02-08T07:08:05.243Z,25.70
2024-02-08T07:10:26.285Z,29.67
2024-02-08T07:12:47.089Z,21.45
2024-02-08T07:17:29.669Z,30.13
2024-02-08T07:19:50.196Z,20.88
2024-02-08T07:22:10.933Z,22.63
2024-02-08T07:24:31.915Z,23.92
2024-02-08T07:26:54.914Z,18.55
2024-02-08T07:29:15.677Z,24.17
2024-02-08T07:31:43.327Z,20.70
2024-02-08T07:34:04.132Z,32.03
2024-02-08T07:36:25.910Z,20.95
2024-02-08T07:38:43.181Z,21.40
2024-02-08T07:40:46.438Z,22.13
2024-02-08T07:42:53.483Z,21.30
2024-02-08T07:44:59.179Z,24.30
2024-02-08T07:47:05.266Z,19.95
2024-02-08T07:49:07.990Z,26.08
2024-02-08T07:51:17.310Z,25.75
2024-02-08T07:53:35.796Z,22.92
2024-02-08T07:55:59.293Z,21.92
2024-02-08T07:58:09.835Z,23.15
2024-02-08T08:00:28.162Z,19.80
2024-02-08T08:02:33.475Z,20.85
2024-02-08T08:04:54.001Z,22.55
2024-02-08T08:07:02.358Z,19.50
2024-02-08T08:09:20.376Z,20.33
2024-02-08T08:11:27.188Z,20.88
2024-02-08T08:13:48.629Z,20.17
2024-02-08T08:16:12.061Z,20.88
2024-02-08T08:18:25.369Z,20.30
2024-02-08T08:20:46.677Z,22.08
2024-02-08T08:23:00.683Z,21.58
2024-02-08T08:25:15.008Z,17.30
2024-02-08T08:27:28.678Z,20.60
2024-02-08T08:29:43.856Z,18.40
2024-02-08T08:31:53.318Z,26.33
2024-02-08T08:34:01.067Z,25.05
2024-02-08T08:36:21.662Z,17.85
2024-02-08T08:38:38.619Z,16.92
2024-02-08T08:40:41.837Z,16.10
2024-02-08T08:42:51.498Z,17.35
2024-02-08T08:44:58.692Z,15.32
2024-02-08T08:47:02.659Z,19.08
2024-02-08T08:49:07.653Z,16.83
2024-02-08T08:51:14.607Z,12.52
2024-02-08T08:53:21.118Z,16.30
2024-02-08T08:55:24.406Z,19.50
2024-02-08T08:57:26.817Z,18.48
2024-02-08T08:59:30.608Z,14.63
2024-02-08T09:01:37.866Z,14.93
2024-02-08T09:03:42.252Z,14.15
2024-02-08T09:05:48.178Z,16.30
2024-02-08T09:07:55.039Z,12.18
2024-02-08T09:10:03.040Z,15.05
2024-02-08T09:12:09.249Z,17.42
2024-02-08T09:14:17.359Z,16.92
2024-02-08T09:16:38.560Z,12.57
2024-02-08T09:18:56.536Z,19.38
2024-02-08T09:21:01.183Z,17.38
2024-02-08T09:23:14.591Z,14.88
2024-02-08T09:25:27.742Z,13.48
2024-02-08T09:27:39.886Z,13.18
2024-02-08T09:29:44.086Z,10.85
2024-02-08T09:31:47.930Z,14.00
2024-02-08T09:34:02.989Z,12.75
2024-02-08T09:36:08.719Z,11.98
2024-02-08T09:38:20.248Z,11.43
2024-02-08T09:40:43.974Z,7.10
2024-02-08T09:42:56.309Z,9.90
2024-02-08T09:45:15.855Z,8.05
2024-02-08T09:47:27.240Z,11.82
2024-02-08T09:49:36.660Z,10.02
2024-02-08T09:51:42.260Z,8.50
2024-02-08T09:53:53.346Z,10.15
2024-02-08T09:55:59.060Z,7.75
2024-02-08T09:58:06.151Z,7.30
2024-02-08T10:00:31.342Z,6.93
2024-02-08T10:02:38.574Z,8.38
2024-02-08T10:04:44.296Z,6.97
2024-02-08T10:06:59.092Z,6.93
2024-02-08T10:09:24.261Z,5.68
2024-02-08T10:11:37.506Z,6.78
2024-02-08T10:13:55.144Z,7.13
2024-02-08T10:15:59.764Z,6.00
2024-02-08T10:18:12.156Z,8.65
2024-02-08T10:20:29.698Z,7.55
2024-02-08T10:22:35.188Z,6.15
2024-02-08T10:25:05.827Z,8.32
2024-02-08T10:27:20.677Z,5.05
2024-02-08T10:29:26.513Z,4.93
2024-02-08T10:31:30.448Z,5.10
2024-02-08T10:33:39.452Z,7.65
2024-02-08T10:35:43.415Z,5.63
2024-02-08T10:37:55.493Z,6.68
2024-02-08T10:40:01.761Z,3.75
2024-02-08T10:42:15.289Z,4.60
2024-02-08T10:44:24.227Z,4.90
2024-02-08T10:46:33.457Z,3.92
2024-02-08T10:48:37.473Z,6.50
2024-02-08T10:50:43.203Z,5.28
2024-02-08T10:52:50.401Z,6.50
2024-02-08T10:54:57.903Z,5.30
2024-02-08T10:57:08.209Z,6.85
2024-02-08T10:59:15.140Z,4.43
2024-02-08T11:01:33.132Z,5.10
2024-02-08T11:03:43.924Z,7.57
2024-02-08T11:06:02.358Z,4.65
2024-02-08T11:08:15.076Z,5.43
2024-02-08T11:10:25.504Z,5.97
2024-02-08T11:12:33.742Z,7.82
2024-02-08T11:14:42.665Z,6.15
2024-02-08T11:16:50.997Z,6.20
2024-02-08T11:18:56.307Z,6.05
2024-02-08T11:21:05.274Z,6.38
2024-02-08T11:23:10.935Z,8.25
2024-02-08T11:25:24.772Z,7.30
2024-02-08T11:27:29.257Z,7.75
2024-02-08T11:29:43.364Z,5.18
2024-02-08T11:33:51.909Z,5.60
2024-02-08T11:36:13.529Z,8.48
2024-02-08T11:38:18.938Z,7.95
2024-02-08T11:40:37.481Z,5.95
2024-02-08T11:42:43.606Z,5.95
2024-02-08T11:44:47.666Z,4.80
2024-02-08T11:46:59.366Z,5.45
2024-02-08T11:49:11.806Z,6.22
2024-02-08T11:51:16.391Z,5.97
2024-02-08T11:53:32.763Z,11.60
2024-02-08T11:55:37.679Z,7.88
2024-02-08T11:57:42.994Z,7.70
2024-02-08T11:59:46.799Z,8.07
2024-02-08T12:01:51.154Z,9.60
2024-02-08T12:03:55.094Z,10.65
2024-02-08T12:05:58.936Z,10.50
2024-02-08T12:08:12.783Z,5.30
2024-02-08T12:10:16.884Z,4.22
2024-02-08T12:12:26.887Z,5.65
2024-02-08T12:14:30.162Z,8.68
2024-02-08T12:16:34.731Z,6.45
2024-02-08T12:18:38.071Z,13.40
2024-02-08T12:20:45.108Z,8.77
2024-02-08T12:22:57.181Z,6.97
2024-02-08T12:25:01.560Z,8.75
2024-02-08T12:27:16.351Z,9.07
2024-02-08T12:29:26.261Z,9.43
2024-02-08T12:31:31.274Z,8.90
2024-02-08T12:33:35.234Z,10.07
2024-02-08T12:35:42.417Z,8.32
2024-02-08T12:37:47.571Z,11.90
2024-02-08T12:39:51.814Z,11.40
2024-02-08T12:41:55.011Z,12.38
2024-02-08T12:43:59.559Z,9.35
2024-02-08T12:46:03.393Z,11.38
2024-02-08T12:48:10.000Z,11.02
2024-02-08T12:50:25.116Z,14.90
2024-02-08T12:52:31.993Z,11.68
2024-02-08T12:54:35.354Z,11.13
2024-02-08T12:56:38.757Z,11.88
2024-02-08T12:58:42.350Z,8.30
2024-02-08T13:00:56.616Z,9.07
2024-02-08T13:03:07.233Z,11.98
2024-02-08T13:05:11.285Z,7.95
2024-02-08T13:07:19.584Z,9.35
2024-02-08T13:09:28.556Z,10.60
2024-02-08T13:11:32.048Z,12.88
2024-02-08T13:13:36.318Z,9.05
2024-02-08T13:15:39.152Z,9.40
2024-02-08T13:17:42.548Z,8.57
2024-02-08T13:19:47.518Z,8.73
2024-02-08T13:21:50.924Z,7.45
2024-02-08T13:23:57.451Z,9.68
2024-02-08T13:26:01.511Z,9.30
2024-02-08T13:28:04.197Z,9.15
2024-02-08T13:30:16.181Z,9.98
2024-02-08T13:32:20.642Z,9.73
2024-02-08T13:34:28.740Z,8.50
2024-02-08T13:36:36.668Z,7.00
2024-02-08T13:38:41.272Z,7.43
2024-02-08T13:40:56.385Z,8.90
2024-02-08T13:43:00.992Z,9.35
2024-02-08T13:45:04.198Z,7.07
2024-02-08T13:47:14.465Z,6.03
2024-02-08T13:51:27.625Z,8.98
2024-02-08T13:53:32.503Z,10.98
2024-02-08T13:55:46.215Z,14.20
2024-02-08T13:58:00.901Z,12.75
2024-02-08T14:00:05.871Z,11.82
2024-02-08T14:02:17.244Z,12.85
2024-02-08T14:04:23.780Z,10.38
2024-02-08T14:06:28.088Z,12.30
2024-02-08T14:08:33.362Z,12.63
2024-02-08T14:10:38.199Z,11.90
2024-02-08T14:12:46.685Z,12.13
2024-02-08T14:14:54.358Z,13.38
2024-02-08T14:19:01.430Z,14.68
2024-02-08T14:21:09.886Z,12.48
2024-02-08T14:23:30.993Z,14.35
2024-02-08T14:25:39.421Z,12.95
2024-02-08T14:27:42.739Z,12.23
2024-02-08T14:29:45.978Z,14.45
2024-02-08T14:31:49.381Z,14.57
2024-02-08T14:33:52.821Z,14.27
2024-02-08T14:35:56.516Z,14.40
2024-02-08T14:37:59.989Z,14.52
2024-02-08T14:40:04.175Z,12.52
2024-02-08T14:42:13.348Z,13.05
2024-02-08T14:44:19.478Z,16.85
2024-02-08T14:46:27.637Z,14.95
2024-02-08T14:48:39.001Z,13.50
2024-02-08T14:50:52.541Z,17.65
2024-02-08T14:53:02.239Z,14.95
2024-02-08T14:55:12.119Z,14.30
2024-02-08T14:57:20.922Z,13.20
2024-02-08T14:59:24.649Z,14.82
2024-02-08T15:01:39.555Z,14.27
2024-02-08T15:03:45.584Z,11.90
2024-02-08T15:06:01.205Z,16.58
2024-02-08T15:08:27.604Z,12.50
2024-02-08T15:10:44.770Z,16.27
2024-02-08T15:12:54.874Z,15.90
2024-02-08T15:15:03.840Z,14.40
2024-02-08T15:17:10.081Z,18.42
2024-02-08T15:19:15.480Z,16.35
2024-02-08T15:21:25.770Z,14.55
2024-02-08T15:23:50.026Z,18.90
2024-02-08T15:25:54.978Z,13.02
2024-02-08T15:28:02.046Z,15.65
2024-02-08T15:30:12.586Z,14.15
2024-02-08T15:32:20.033Z,14.70
2024-02-08T15:34:41.811Z,17.67
2024-02-08T15:37:13.674Z,16.95
2024-02-08T15:39:49.013Z,15.63
2024-02-08T15:42:02.957Z,13.63
2024-02-08T15:44:08.297Z,16.95
2024-02-08T15:46:12.121Z,16.90
2024-02-08T15:48:19.532Z,15.05
2024-02-08T15:50:26.454Z,15.43
2024-02-08T15:52:35.779Z,12.57
2024-02-08T15:54:39.788Z,12.85
2024-02-08T15:56:43.825Z,15.55
2024-02-08T15:58:47.729Z,18.73
2024-02-08T16:01:12.139Z,13.05
2024-02-08T16:03:19.598Z,13.30
2024-02-08T16:05:24.479Z,13.68
2024-02-08T16:07:34.364Z,16.48
2024-02-08T16:09:38.824Z,13.82
2024-02-08T16:11:44.361Z,14.30
2024-02-08T16:13:54.914Z,18.40
2024-02-08T16:16:09.533Z,16.17
2024-02-08T16:18:24.304Z,15.05
2024-02-08T16:20:31.357Z,13.82
2024-02-08T16:22:49.529Z,16.35
2024-02-08T16:24:56.076Z,17.17
2024-02-08T16:27:01.973Z,14.73
2024-02-08T16:29:11.036Z,15.57
2024-02-08T16:31:26.210Z,12.80
2024-02-08T16:33:49.979Z,14.52
2024-02-08T16:36:01.532Z,12.60
2024-02-08T16:38:22.101Z,15.35
2024-02-08T16:40:30.677Z,19.17
2024-02-08T16:42:40.190Z,16.25
2024-02-08T16:44:59.912Z,14.63
2024-02-08T16:47:29.606Z,13.60
2024-02-08T16:49:42.589Z,11.63
2024-02-08T16:51:51.067Z,14.70
2024-02-08T16:54:07.486Z,13.52
2024-02-08T16:56:18.337Z,19.27
2024-02-08T16:58:40.162Z,15.40
2024-02-08T17:00:54.118Z,17.02
2024-02-08T17:03:19.840Z,18.33
2024-02-08T17:05:30.999Z,15.32
2024-02-08T17:07:48.780Z,16.15
2024-02-08T17:10:00.525Z,15.10
2024-02-08T17:12:20.121Z,26.90
2024-02-08T17:14:38.323Z,22.88
2024-02-08T17:19:20.183Z,17.98
2024-02-08T17:21:47.720Z,19.02
2024-02-08T17:24:07.498Z,23.60
2024-02-08T17:26:28.764Z,23.35
2024-02-08T17:28:38.368Z,23.15
2024-02-08T17:31:02.259Z,21.23
2024-02-08T17:33:14.097Z,22.70
2024-02-08T17:35:25.525Z,29.20
2024-02-08T17:37:40.250Z,31.70
2024-02-08T17:39:50.468Z,31.20
2024-02-08T17:41:59.530Z,28.90
2024-02-08T17:44:08.959Z,30.13
2024-02-08T17:46:19.940Z,24.95
2024-02-08T17:48:35.196Z,24.40
2024-02-08T17:50:49.341Z,24.42
2024-02-08T17:52:56.788Z,24.40
2024-02-08T17:55:02.794Z,28.67
2024-02-08T17:57:15.072Z,39.25
2024-02-08T17:59:18.546Z,263.67
2024-02-08T18:01:33.371Z,181.77
2024-02-08T18:03:37.292Z,204.52
2024-02-08T18:05:42.774Z,217.35
2024-02-08T18:07:48.302Z,154.02
2024-02-08T18:09:56.342Z,97.60
2024-02-08T18:12:14.203Z,64.07
2024-02-08T18:14:19.461Z,34.78
2024-02-08T18:16:24.514Z,36.05
2024-02-08T18:18:29.945Z,23.98
2024-02-08T18:20:34.649Z,18.80
2024-02-08T18:22:42.581Z,18.95
2024-02-08T18:28:57.274Z,20.50
2024-02-08T18:31:07.408Z,24.33
2024-02-08T18:33:16.921Z,19.95
2024-02-08T18:35:22.841Z,28.40
2024-02-08T18:37:27.423Z,25.83
2024-02-08T18:39:34.254Z,27.80
2024-02-08T18:41:41.004Z,35.55
2024-02-08T18:43:45.827Z,31.27
2024-02-08T18:45:50.525Z,29.48
2024-02-08T18:47:55.045Z,26.10
2024-02-08T18:50:00.045Z,33.15
2024-02-08T18:52:05.918Z,30.75
2024-02-08T18:54:12.770Z,41.85
2024-02-08T18:56:19.934Z,42.65
2024-02-08T18:58:23.787Z,47.17
2024-02-08T19:00:27.163Z,43.80
2024-02-08T19:02:30.993Z,47.03
2024-02-08T19:04:36.493Z,58.65
2024-02-08T19:06:41.077Z,55.97
2024-02-08T19:08:46.156Z,55.10
2024-02-08T19:10:54.386Z,62.30
2024-02-08T19:13:01.102Z,62.65
2024-02-08T19:15:08.269Z,61.20
2024-02-08T19:17:14.838Z,73.82
2024-02-08T19:19:22.839Z,67.78
2024-02-08T19:21:27.802Z,91.60
2024-02-08T19:23:35.396Z,82.88
2024-02-08T19:25:40.465Z,87.97
2024-02-08T19:27:46.080Z,113.35
2024-02-08T19:29:55.759Z,114.03
2024-02-08T19:32:00.108Z,107.25
2024-02-08T19:34:07.974Z,99.25
2024-02-08T19:38:19.644Z,87.03
2024-02-08T19:40:26.339Z,83.43
2024-02-08T19:42:32.772Z,68.00
2024-02-08T19:44:37.414Z,73.90
2024-02-08T19:46:53.885Z,75.40
2024-02-08T19:49:04.348Z,67.47
2024-02-08T19:51:10.796Z,62.60
2024-02-08T19:53:16.533Z,52.33
2024-02-08T19:55:32.188Z,56.45
2024-02-08T19:57:40.758Z,52.92
2024-02-08T19:59:50.162Z,54.63
2024-02-08T20:01:58.973Z,49.50
2024-02-08T20:04:04.917Z,46.00
2024-02-08T20:06:12.414Z,53.55
2024-02-08T20:08:17.884Z,34.50
2024-02-08T20:10:21.056Z,29.60
2024-02-08T20:12:26.667Z,30.52
2024-02-08T20:14:30.396Z,30.48
2024-02-08T20:16:37.169Z,30.20
2024-02-08T20:18:47.206Z,37.35
2024-02-08T20:20:53.710Z,34.45
2024-02-08T20:23:00.825Z,44.97
2024-02-08T20:25:06.962Z,52.13
2024-02-08T20:27:10.243Z,57.30
2024-02-08T20:29:16.060Z,55.92
2024-02-08T20:31:20.113Z,51.85
2024-02-08T20:33:23.671Z,45.97
2024-02-08T20:35:28.696Z,46.60
2024-02-08T20:37:33.937Z,49.20
2024-02-08T20:39:36.135Z,50.05
2024-02-08T20:41:39.663Z,49.20
2024-02-08T20:43:49.944Z,43.33
2024-02-08T20:45:55.804Z,44.83
2024-02-08T20:48:01.830Z,51.55
2024-02-08T20:50:06.348Z,39.53
2024-02-08T20:52:13.988Z,43.40
2024-02-08T20:56:29.572Z,27.38
2024-02-08T20:58:32.957Z,38.25
2024-02-08T21:00:36.715Z,42.35
2024-02-08T21:02:43.149Z,41.03
2024-02-08T21:04:49.806Z,39.67
2024-02-08T21:06:53.213Z,40.85
2024-02-08T21:08:58.079Z,37.08
2024-02-08T21:11:02.767Z,37.95
2024-02-08T21:13:07.838Z,31.58
2024-02-08T21:15:15.693Z,29.67
2024-02-08T21:19:22.554Z,26.08
2024-02-08T21:21:25.895Z,33.17
2024-02-08T21:23:28.182Z,23.92
2024-02-08T21:25:33.754Z,24.02
2024-02-08T21:27:37.181Z,24.42
2024-02-08T21:29:41.360Z,31.92
2024-02-08T21:31:46.673Z,24.65
2024-02-08T21:33:51.831Z,25.05
2024-02-08T21:36:01.444Z,22.90
2024-02-08T21:38:06.277Z,32.28
2024-02-08T21:40:10.554Z,21.75
2024-02-08T21:42:16.655Z,27.13
2024-02-08T21:44:22.149Z,27.98
2024-02-08T21:46:28.815Z,24.33
2024-02-08T21:48:33.169Z,28.15
2024-02-08T21:50:35.720Z,25.35
2024-02-08T21:52:39.279Z,25.95
2024-02-08T21:54:42.936Z,28.52
2024-02-08T21:56:48.397Z,31.10
2024-02-08T21:58:53.453Z,28.70
2024-02-08T22:03:17.632Z,30.83
2024-02-08T22:05:21.911Z,30.20
2024-02-08T22:07:25.569Z,35.20
2024-02-08T22:09:30.419Z,36.20
2024-02-08T22:11:35.985Z,34.90
2024-02-08T22:13:39.322Z,31.27
2024-02-08T22:15:44.862Z,36.90
2024-02-08T22:17:50.109Z,32.60
2024-02-08T22:19:53.579Z,26.50
2024-02-08T22:21:57.373Z,29.60
2024-02-08T22:24:00.773Z,34.92
2024-02-08T22:26:04.154Z,38.35
2024-02-08T22:28:10.953Z,30.35
2024-02-08T22:30:14.196Z,32.92
2024-02-08T22:32:19.013Z,29.55
2024-02-08T22:34:22.561Z,26.67
2024-02-08T22:36:26.705Z,29.45
2024-02-08T22:38:30.259Z,22.40
2024-02-08T22:40:32.879Z,20.70
2024-02-08T22:42:37.678Z,22.73
2024-02-08T22:44:42.929Z,21.00
2024-02-08T22:46:46.794Z,21.00
2024-02-08T22:48:51.545Z,20.88
2024-02-08T22:50:54.899Z,19.90
2024-02-08T22:52:58.196Z,20.48
2024-02-08T22:55:00.522Z,21.63
2024-02-08T22:57:05.136Z,20.42
2024-02-08T22:59:07.869Z,18.77
2024-02-08T23:01:25.497Z,27.17
2024-02-08T23:03:33.009Z,17.52
2024-02-08T23:05:41.203Z,22.15
2024-02-08T23:07:45.510Z,18.05
2024-02-08T23:09:48.090Z,16.67
2024-02-08T23:11:51.847Z,22.65
2024-02-08T23:13:55.795Z,20.67
2024-02-08T23:15:59.978Z,28.52
2024-02-08T23:18:04.390Z,24.33
2024-02-08T23:20:12.538Z,27.25
2024-02-08T23:22:17.620Z,31.90
2024-02-08T23:24:24.259Z,28.90
2024-02-08T23:26:27.986Z,22.65
2024-02-08T23:28:31.250Z,25.95
2024-02-08T23:30:36.253Z,28.65
2024-02-08T23:32:40.066Z,21.02
2024-02-08T23:34:43.415Z,28.02
2024-02-08T23:36:46.768Z,24.98
2024-02-08T23:38:51.622Z,22.88
2024-02-08T23:40:56.254Z,21.58
2024-02-08T23:43:02.632Z,24.75
2024-02-08T23:45:06.521Z,19.88
2024-02-08T23:47:19.123Z,18.10
2024-02-08T23:49:22.653Z,24.17
2024-02-08T23:51:26.478Z,20.17
2024-02-08T23:53:32.794Z,28.38
2024-02-08T23:55:41.048Z,21.42
2024-02-08T23:57:44.696Z,19.27
2024-02-08T23:59:48.645Z,23.20
